Latest Weather Observations for Ngayawili (Elcho Island)

IDD60801

Issued at 9:31 am CST Monday 23 January 2017 (issued every 30 minutes, with the page automatically refreshed every 10 minutes)

About weather observations | Map of weather stations | Latest weather observations for NT | Other Formats
Station Details ID: 014517 Name: NGAYAWILI Lat: -12.00 Lon: 135.57 Height: 8.1 m
Data from the previous 72 hours. | See also: Recent months at Ngayawili (Elcho Island)
Date/Time
CST
Temp
°C
App
Temp
°C
Dew
Point
°C
Rel
Hum
%
Delta-T
°C
Wind Press
QNH
hPa
Press
MSL
hPa
Rain since
9am
mm
Dir  Spd
km/h
Gust
km/h
Spd
kts
Gust
kts
23/09:30am 27.0 25.9 23.5 81 2.4 WSW 35 41 19 22 1007.5 1007.4 0.0
23/09:00am 26.8 26.6 24.3 86 1.7 W 33 43 18 23 1007.2 1007.1 169.4
23/08:30am 26.5 25.9 24.3 88 1.5 W 35 43 19 23 1006.9 1006.8 169.4
23/08:00am 26.6 27.1 24.6 89 1.4 W 30 37 16 20 1006.6 1006.5 169.4
23/07:30am 26.5 25.8 24.2 87 1.6 WSW 35 44 19 24 1006.1 1006.0 169.4
23/07:00am 26.4 25.3 24.1 87 1.6 WSW 37 46 20 25 1005.9 1005.8 169.4
23/06:30am 26.1 24.3 24.3 90 1.2 W 41 52 22 28 1005.5 1005.4 169.4
23/06:00am 26.5 26.9 25.3 93 0.8 WSW 33 43 18 23 1005.2 1005.1 169.4
23/05:30am 26.3 24.6 25.1 93 0.8 W 43 50 23 27 1004.7 1004.6 168.6
23/05:00am 25.4 25.0 24.7 96 0.5 WSW 35 44 19 24 1004.4 1004.3 168.4
23/04:30am 25.6 23.6 24.6 94 0.7 W 43 54 23 29 1004.5 1004.4 166.4
23/04:00am 25.9 23.6 25.0 95 0.6 WNW 46 56 25 30 1004.3 1004.2 164.4
23/03:30am 26.1 22.7 25.1 94 0.7 WNW 52 65 28 35 1004.2 1004.1 162.8
23/03:00am 25.9 21.5 24.9 94 0.7 WNW 57 70 31 38 1004.4 1004.3 162.4
23/02:30am 26.7 25.3 25.5 93 0.8 NW 43 56 23 30 1004.6 1004.5 161.2
23/02:00am 26.5 25.0 25.3 93 0.8 NW 43 54 23 29 1005.0 1004.9 161.0
23/01:30am 26.5 24.8 25.3 93 0.8 WNW 44 56 24 30 1005.4 1005.3 160.6
23/01:00am 26.1 23.8 24.9 93 0.8 WNW 46 56 25 30 1005.7 1005.6 160.0
23/12:30am 26.3 23.4 25.3 94 0.7 WNW 50 63 27 34 1006.4 1006.3 159.4
23/12:00am 26.5 24.6 25.6 95 0.6 WNW 46 54 25 29 1006.8 1006.7 159.4
 
Date/Time
CST
Temp
°C
App
Temp
°C
Dew
Point
°C
Rel
Hum
%
Delta-T
°C
Wind Press
QNH
hPa
Press
MSL
hPa
Rain since
9am
mm
Dir  Spd
km/h
Gust
km/h
Spd
kts
Gust
kts
22/11:30pm 26.1 23.6 25.2 95 0.6 WNW 48 59 26 32 1007.4 1007.3 158.8
22/11:00pm 26.3 24.8 25.6 96 0.5 NW 44 52 24 28 1007.4 1007.3 156.6
22/10:30pm 25.9 24.7 25.2 96 0.5 WNW 41 48 22 26 1008.0 1007.9 154.8
22/10:00pm 25.7 22.9 24.8 95 0.6 WNW 48 56 26 30 1008.0 1007.9 153.2
22/09:50pm 25.7 23.7 24.5 93 0.8 NW 43 56 23 30 1007.8 1007.7 152.6
22/09:30pm 26.4 24.2 25.2 93 0.8 NW 46 56 25 30 1007.6 1007.5 151.2
22/09:00pm 26.1 23.8 24.9 93 0.8 NW 46 59 25 32 1007.1 1007.0 150.0
22/08:30pm 25.8 24.1 25.3 97 0.4 NW 44 54 24 29 1007.1 1007.0 148.2
22/08:07pm 25.6 24.1 25.3 98 0.2 NW 43 61 23 33 1007.3 1007.2 141.2
22/08:00pm 26.0 25.6 25.8 99 0.1 NW 39 50 21 27 1007.3 1007.2 139.2
22/07:30pm 25.8 24.4 25.5 98 0.2 NW 43 54 23 29 1007.5 1007.4 112.4
22/07:16pm 26.1 26.0 25.8 98 0.2 NW 37 56 20 30 1007.2 1007.1 101.4
22/07:00pm 26.3 27.7 26.0 98 0.2 NW 30 41 16 22 1007.1 1007.0 94.4
22/06:57pm 26.0 26.8 25.7 98 0.2 NW 32 37 17 20 1007.2 1007.1 93.4
22/06:30pm 25.2 27.9 25.0 99 0.1 N 20 28 11 15 1007.1 1007.0 91.6
22/06:00pm 24.9 24.1 24.7 99 0.1 NNW 37 44 20 24 1006.9 1006.8 83.6
22/05:51pm 25.2 25.4 25.0 99 0.1 NW 33 44 18 24 1006.8 1006.7 73.6
22/05:45pm 25.5 27.2 25.3 99 0.1 WNW 26 43 14 23 1006.9 1006.8 67.0
22/05:30pm 24.8 27.3 24.5 98 0.2 W 19 24 10 13 1006.7 1006.6 53.8
22/05:09pm 24.4 25.9 23.7 96 0.5 WNW 22 52 12 28 1006.3 1006.2 43.6
22/05:00pm 25.7 29.9 25.4 98 0.2 W 13 19 7 10 1006.2 1006.1 37.0
22/04:30pm 25.6 30.4 25.1 97 0.3 W 9 13 5 7 1006.2 1006.1 27.2
22/04:00pm 24.9 28.3 24.0 95 0.6 WNW 13 17 7 9 1006.2 1006.1 21.0
22/03:30pm 25.0 27.2 24.3 96 0.5 W 20 24 11 13 1006.2 1006.1 19.2
22/03:03pm 26.2 26.1 24.2 89 1.4 WNW 32 46 17 25 1006.3 1006.2 3.8
22/03:00pm 27.0 26.7 23.9 83 2.1 NW 32 43 17 23 1006.4 1006.3 3.6
22/02:30pm 27.8 27.9 24.8 84 2.1 NNW 33 39 18 21 1006.2 1006.1 3.6
22/02:00pm 27.0 28.8 26.1 95 0.6 NW 28 33 15 18 1006.9 1006.8 3.4
22/01:53pm 26.6 27.6 25.4 93 0.8 NW 30 35 16 19 1007.0 1006.9 2.0
22/01:30pm 26.9 25.3 23.2 80 2.5 NW 37 46 20 25 1007.2 1007.1 0.0
22/01:00pm 28.7 30.2 25.5 83 2.3 NW 28 35 15 19 1007.3 1007.2 0.0
22/12:30pm 30.1 32.8 24.7 73 3.8 WNW 19 24 10 13 1007.8 1007.7 0.0
22/12:00pm 30.0 33.2 24.9 74 3.6 W 17 20 9 11 1008.6 1008.5 0.0
22/11:30am 30.4 33.7 25.7 76 3.3 W 19 22 10 12 1008.8 1008.7 0.0
22/11:00am 29.7 32.9 25.0 76 3.3 W 17 24 9 13 1009.2 1009.1 0.0
22/10:30am 29.6 32.2 24.9 76 3.3 WSW 20 24 11 13 1009.5 1009.4 0.0
22/10:00am 29.8 33.3 24.9 75 3.4 W 15 20 8 11 1009.9 1009.8 0.0
22/09:30am 29.5 32.3 25.0 77 3.2 WSW 19 24 10 13 1009.5 1009.4 0.0
22/09:00am 29.0 30.7 24.6 77 3.1 WSW 24 28 13 15 1009.7 1009.6 11.2
22/08:30am 28.8 29.7 23.9 75 3.4 WSW 26 30 14 16 1009.3 1009.2 11.2
22/08:00am 28.2 30.0 24.2 79 2.8 WSW 22 28 12 15 1009.2 1009.1 11.2
22/07:30am 28.0 29.3 24.0 79 2.8 WSW 24 28 13 15 1008.8 1008.7 11.2
22/07:00am 27.8 28.4 24.2 81 2.5 WSW 28 32 15 17 1008.2 1008.1 11.2
22/06:30am 27.8 28.3 24.6 83 2.2 WSW 30 33 16 18 1008.0 1007.9 11.2
22/06:00am 27.5 28.3 24.4 83 2.2 WSW 28 33 15 18 1007.6 1007.5 11.2
22/05:30am 27.5 28.8 24.7 85 2.0 WSW 26 32 14 17 1007.6 1007.5 11.2
22/05:00am 27.6 27.7 24.6 84 2.1 WSW 32 35 17 19 1007.5 1007.4 11.2
22/04:30am 27.1 28.2 24.9 88 1.5 WSW 28 33 15 18 1007.5 1007.4 11.2
22/04:00am 26.7 29.4 25.7 94 0.7 SW 22 26 12 14 1007.5 1007.4 11.2
22/03:30am 26.5 29.7 25.8 96 0.5 SW 20 26 11 14 1007.8 1007.7 11.2
22/03:00am 26.3 30.9 26.0 98 0.2 SSW 13 17 7 9 1008.2 1008.1 11.0
22/02:30am 25.7 30.6 25.2 97 0.3 SE 9 11 5 6 1008.3 1008.2 10.8
22/02:00am 25.8 30.4 25.3 97 0.3 SSE 11 15 6 8 1008.5 1008.4 10.8
22/01:30am 26.3 30.5 25.4 95 0.6 SSE 13 19 7 10 1008.8 1008.7 10.4
22/01:00am 27.0 31.1 25.8 93 0.8 W 15 20 8 11 1009.0 1008.9 10.2
22/12:30am 26.8 31.3 25.8 94 0.7 W 13 17 7 9 1009.4 1009.3 10.0
22/12:00am 26.5 30.3 25.3 93 0.8 W 15 17 8 9 1009.8 1009.7 10.0
 
Date/Time
CST
Temp
°C
App
Temp
°C
Dew
Point
°C
Rel
Hum
%
Delta-T
°C
Wind Press
QNH
hPa
Press
MSL
hPa
Rain since
9am
mm
Dir  Spd
km/h
Gust
km/h
Spd
kts
Gust
kts
21/11:30pm 26.1 29.4 24.5 91 1.1 WSW 15 19 8 10 1010.5 1010.4 9.6
21/11:00pm 26.1 29.3 24.3 90 1.2 WNW 15 17 8 9 1010.8 1010.7 9.0
21/10:30pm 25.8 27.9 23.7 88 1.4 WNW 19 20 10 11 1010.6 1010.5 8.4
21/10:00pm 25.7 27.2 23.7 89 1.4 WNW 22 26 12 14 1010.3 1010.2 7.6
21/09:30pm 25.9 28.0 24.7 93 0.8 W 22 28 12 15 1010.5 1010.4 6.4
21/09:00pm 26.9 30.1 25.9 94 0.7 W 20 32 11 17 1010.2 1010.1 4.8
21/08:30pm 25.3 23.8 24.1 93 0.8 WNW 39 50 21 27 1009.6 1009.5 3.0
21/08:11pm 28.9 30.9 26.3 86 1.9 NW 28 48 15 26 1009.0 1008.9 1.2
21/08:00pm 28.7 30.2 25.5 83 2.3 NW 28 32 15 17 1008.9 1008.8 1.0
21/07:30pm 28.5 31.0 25.3 83 2.3 NW 22 26 12 14 1008.4 1008.3 0.4
21/07:00pm 29.5 31.7 25.5 79 2.8 NW 24 30 13 16 1008.3 1008.2 0.2
21/06:30pm 29.4 30.9 24.9 77 3.2 NW 26 30 14 16 1008.3 1008.2 0.2
21/06:00pm 29.6 30.6 24.2 73 3.8 NW 26 30 14 16 1007.7 1007.6 0.2
21/05:30pm 29.6 30.9 24.0 72 3.9 NW 24 30 13 16 1007.3 1007.2 0.2
21/05:00pm 30.2 33.4 25.9 78 3.1 NNW 20 24 11 13 1006.9 1006.8 0.2
21/04:30pm 30.3 32.3 25.1 73 3.7 NNW 24 30 13 16 1006.8 1006.7 0.2
21/04:00pm 30.5 31.7 25.1 73 3.8 NNW 28 32 15 17 1006.4 1006.3 0.2
21/03:30pm 31.0 32.9 25.6 73 3.8 NW 26 30 14 16 1006.8 1006.7 0.2
21/03:00pm 30.9 32.8 25.0 71 4.2 NNW 24 28 13 15 1007.1 1007.0 0.2
21/02:30pm 31.1 32.7 25.2 71 4.2 NW 26 30 14 16 1007.5 1007.4 0.2
21/02:00pm 30.8 33.4 24.9 71 4.1 NW 20 24 11 13 1008.3 1008.2 0.2
21/01:30pm 31.4 34.8 26.2 74 3.7 WNW 20 22 11 12 1008.8 1008.7 0.2
21/01:00pm 30.5 32.9 24.2 69 4.4 WNW 19 24 10 13 1009.1 1009.0 0.2
21/12:30pm 30.6 33.1 24.5 70 4.3 WNW 19 22 10 12 1009.4 1009.3 0.2
21/12:00pm 30.3 33.0 24.2 70 4.3 WNW 17 20 9 11 1009.6 1009.5 0.2
21/11:30am 30.0 32.6 23.9 70 4.2 WNW 17 20 9 11 1009.9 1009.8 0.0
21/11:00am 30.0 32.6 23.9 70 4.2 W 17 20 9 11 1010.1 1010.0 0.0
21/10:30am 29.3 32.8 24.2 74 3.5 WSW 13 17 7 9 1010.2 1010.1 0.0
21/10:00am 29.2 33.1 24.3 75 3.4 WSW 11 15 6 8 1010.3 1010.2 0.0
21/09:30am 28.4 32.2 23.5 75 3.4 SW 9 13 5 7 1010.2 1010.1 0.0
21/09:00am 28.2 32.2 23.8 77 3.0 SW 9 13 5 7 1010.3 1010.2 14.4
21/08:30am 28.0 30.8 23.6 77 3.0 SW 15 17 8 9 1010.5 1010.4 14.4
21/08:00am 27.7 30.8 23.5 78 2.9 WSW 13 17 7 9 1010.5 1010.4 14.4
21/07:30am 27.4 30.5 23.6 80 2.6 WSW 13 19 7 10 1010.3 1010.2 14.4
21/07:00am 27.3 30.1 23.7 81 2.5 W 15 20 8 11 1010.3 1010.2 14.4
21/06:30am 26.6 29.8 23.7 84 2.0 WSW 13 17 7 9 1009.9 1009.8 14.4
21/06:00am 27.0 30.7 23.9 83 2.1 WSW 11 15 6 8 1009.6 1009.5 14.2
21/05:30am 26.9 29.8 23.8 83 2.1 WSW 15 17 8 9 1009.3 1009.2 14.2
21/05:00am 26.5 29.6 23.6 84 2.0 WSW 13 17 7 9 1009.0 1008.9 14.2
21/04:30am 25.9 30.2 24.3 91 1.1 SW 9 13 5 7 1008.9 1008.8 14.2
21/04:00am 26.0 30.8 24.4 91 1.1 SSE 7 11 4 6 1008.6 1008.5 14.2
21/03:30am 26.6 30.0 24.1 86 1.7 WSW 13 17 7 9 1008.6 1008.5 14.2
21/03:00am 26.6 30.5 24.3 87 1.6 W 11 15 6 8 1008.6 1008.5 14.2
21/02:30am 26.6 29.4 23.7 84 2.0 WSW 15 20 8 11 1008.8 1008.7 14.0
21/02:00am 26.9 29.9 24.0 84 2.0 W 15 20 8 11 1008.9 1008.8 14.0
21/01:30am 26.7 28.7 24.0 85 1.9 W 20 26 11 14 1009.0 1008.9 14.0
21/01:00am 26.5 28.2 24.0 86 1.7 W 22 28 12 15 1009.2 1009.1 14.0
21/12:30am 26.3 26.7 23.8 86 1.7 W 28 33 15 18 1009.8 1009.7 14.0
21/12:00am 26.1 25.5 23.4 85 1.8 WSW 32 39 17 21 1010.3 1010.2 14.0
 
Date/Time
CST
Temp
°C
App
Temp
°C
Dew
Point
°C
Rel
Hum
%
Delta-T
°C
Wind Press
QNH
hPa
Press
MSL
hPa
Rain since
9am
mm
Dir  Spd
km/h
Gust
km/h
Spd
kts
Gust
kts
20/11:30pm 25.7 25.2 24.5 93 0.8 WSW 35 43 19 23 1009.9 1009.8 13.8
20/11:18pm 25.5 25.6 24.5 94 0.7 SW 32 48 17 26 1009.9 1009.8 12.4
20/11:13pm 26.3 29.3 25.6 96 0.5 SSW 20 37 11 20 1009.9 1009.8 11.8
20/11:00pm 26.0 29.7 25.1 95 0.6 S 15 20 8 11 1009.6 1009.5 11.6
20/10:41pm 26.3 26.9 25.3 94 0.7 SW 32 61 17 33 1009.9 1009.8 10.4
20/10:35pm 26.3 26.2 25.1 93 0.8 WSW 35 61 19 33 1010.1 1010.0 7.2
20/10:30pm 26.6 28.3 24.1 86 1.7 WSW 22 56 12 30 1009.9 1009.8 3.8
20/10:00pm 27.5 30.1 24.6 84 2.0 W 19 22 10 12 1009.9 1009.8 3.4
20/09:30pm 27.5 30.0 24.7 85 2.0 W 20 26 11 14 1009.9 1009.8 3.4
20/09:00pm 27.3 29.0 24.7 86 1.8 WNW 24 28 13 15 1009.6 1009.5 3.4
20/08:30pm 26.7 28.2 24.4 87 1.6 W 24 30 13 16 1009.4 1009.3 3.4
20/08:00pm 26.3 26.6 24.9 92 1.0 WNW 32 41 17 22 1008.8 1008.7 3.4
20/07:49pm 25.8 26.5 23.7 88 1.4 WSW 26 48 14 26 1008.5 1008.4 3.2
20/07:30pm 26.6 29.6 25.6 94 0.7 WSW 20 28 11 15 1007.9 1007.8 3.0
20/07:00pm 26.6 29.6 25.6 94 0.7 W 20 24 11 13 1007.9 1007.8 2.2
20/06:30pm 26.7 28.9 25.5 93 0.8 W 24 32 13 17 1007.4 1007.3 1.4
20/06:00pm 26.0 26.4 24.4 91 1.1 W 30 35 16 19 1007.2 1007.1 0.4
20/05:30pm 26.6 24.2 24.8 90 1.3 W 46 56 25 30 1007.0 1006.9 0.2
20/05:15pm 28.1 26.6 24.1 79 2.8 WNW 39 65 21 35 1006.3 1006.2 0.0
20/05:12pm 28.9 29.2 24.2 76 3.3 WNW 30 54 16 29 1006.5 1006.4 0.0
20/05:00pm 30.1 32.1 25.8 78 3.1 WNW 26 32 14 17 1006.1 1006.0 0.0
20/04:30pm 30.1 32.2 25.4 76 3.3 NW 24 28 13 15 1006.1 1006.0 0.0
20/04:00pm 30.2 31.9 25.3 75 3.5 WNW 26 30 14 16 1006.1 1006.0 0.0
20/03:30pm 30.8 32.8 25.8 74 3.6 NW 26 32 14 17 1006.0 1005.9 0.0
20/03:00pm 31.2 33.7 26.0 74 3.7 NW 24 28 13 15 1006.3 1006.2 0.0
20/02:30pm 31.0 32.8 25.4 72 4.0 NW 26 30 14 16 1006.7 1006.6 0.0
20/02:00pm 30.9 33.2 25.0 71 4.2 WNW 22 26 12 14 1007.0 1006.9 0.0
20/01:30pm 30.8 33.8 25.2 72 4.0 WNW 19 24 10 13 1007.2 1007.1 0.0
20/01:00pm 30.9 34.8 25.5 73 3.8 WNW 15 20 8 11 1007.6 1007.5 0.0
20/12:30pm 30.5 34.0 24.9 72 3.9 W 15 20 8 11 1008.2 1008.1 0.0
20/12:00pm 30.3 32.6 24.4 70 4.1 W 20 26 11 14 1008.6 1008.5 0.0
20/11:30am 30.0 32.4 24.2 71 4.0 W 19 22 10 12 1009.0 1008.9 0.0
20/11:00am 30.0 32.3 24.4 72 3.9 W 20 26 11 14 1009.2 1009.1 0.0
20/10:30am 29.7 32.1 24.3 73 3.8 W 19 24 10 13 1009.4 1009.3 0.0
20/10:00am 29.3 31.6 24.4 75 3.4 W 20 24 11 13 1009.5 1009.4 0.0

Other Formats:

Comma delimited format used in spreadsheet applications
http://www.bom.gov.au/fwo/IDD60801/IDD60801.95146.axf

JavaScript Object Notation format (JSON) in row-major order
http://www.bom.gov.au/fwo/IDD60801/IDD60801.95146.json